createdAt,value
2018-12-29T00:02:10.716Z,98328.66
2018-12-29T00:04:39.825Z,98327.34
2018-12-29T00:07:09.054Z,98329.58
2018-12-29T00:09:38.164Z,98328.92
2018-12-29T00:12:07.291Z,98321.02
2018-12-29T00:14:36.388Z,98328.61
2018-12-29T00:17:05.835Z,98327.86
2018-12-29T00:19:34.956Z,98325.42
2018-12-29T00:22:04.290Z,98315.50
2018-12-29T00:24:33.409Z,98307.95
2018-12-29T00:27:02.542Z,98312.14
2018-12-29T00:29:31.647Z,98311.96
2018-12-29T00:32:00.783Z,98321.05
2018-12-29T00:34:29.898Z,98322.39
2018-12-29T00:36:59.031Z,98320.60
2018-12-29T00:39:28.143Z,98325.75
2018-12-29T00:41:57.294Z,98329.05
2018-12-29T00:44:26.410Z,98321.84
2018-12-29T00:46:55.538Z,98324.73
2018-12-29T00:49:24.644Z,98318.63
2018-12-29T00:51:53.776Z,98332.34
2018-12-29T00:54:22.882Z,98336.98
2018-12-29T00:56:52.015Z,98341.99
2018-12-29T00:59:21.147Z,98339.16
2018-12-29T01:01:50.276Z,98327.66
2018-12-29T01:04:19.397Z,98328.27
2018-12-29T01:06:48.532Z,98328.34
2018-12-29T01:09:17.646Z,98315.64
2018-12-29T01:11:46.771Z,98320.41
2018-12-29T01:14:15.880Z,98313.11
2018-12-29T01:16:45.106Z,98314.70
2018-12-29T01:19:14.262Z,98323.43
2018-12-29T01:21:43.381Z,98325.64
2018-12-29T01:24:12.499Z,98333.58
2018-12-29T01:26:41.603Z,98341.98
2018-12-29T01:29:10.738Z,98339.20
2018-12-29T01:31:39.846Z,98342.22
2018-12-29T01:34:09.046Z,98353.53
2018-12-29T01:36:38.160Z,98359.00
2018-12-29T01:39:07.495Z,98345.69
2018-12-29T01:41:36.619Z,98347.62
2018-12-29T01:44:05.762Z,98340.53
2018-12-29T01:46:34.868Z,98346.07
2018-12-29T01:49:04.005Z,98328.99
2018-12-29T01:51:33.111Z,98324.92
2018-12-29T01:54:02.229Z,98324.10
2018-12-29T01:56:31.340Z,98317.85
2018-12-29T01:59:00.475Z,98319.52
2018-12-29T02:01:29.569Z,98324.92
2018-12-29T02:03:58.679Z,98324.94
2018-12-29T02:06:27.786Z,98327.97
2018-12-29T02:08:56.917Z,98322.89
2018-12-29T02:11:26.037Z,98331.75
2018-12-29T02:13:55.154Z,98333.45
2018-12-29T02:16:24.265Z,98326.38
2018-12-29T02:18:53.386Z,98322.90
2018-12-29T02:21:22.495Z,98330.27
2018-12-29T02:23:51.628Z,98336.05
2018-12-29T02:26:20.749Z,98343.64
2018-12-29T02:28:49.865Z,98346.26
2018-12-29T02:31:18.994Z,98333.32
2018-12-29T02:33:48.100Z,98342.15
2018-12-29T02:36:17.216Z,98338.00
2018-12-29T02:38:46.316Z,98333.34
2018-12-29T02:41:15.465Z,98331.38
2018-12-29T02:43:44.568Z,98328.74
2018-12-29T02:46:13.693Z,98334.36
2018-12-29T02:48:42.792Z,98326.11
2018-12-29T02:51:11.911Z,98321.16
2018-12-29T02:53:41.022Z,98327.77
2018-12-29T02:56:10.156Z,98315.82
2018-12-29T02:58:39.260Z,98315.48
2018-12-29T03:01:08.390Z,98319.14
2018-12-29T03:03:37.493Z,98315.27
2018-12-29T03:06:06.946Z,98316.89
2018-12-29T03:08:36.061Z,98303.25
2018-12-29T03:11:05.191Z,98300.27
2018-12-29T03:13:34.296Z,98299.91
2018-12-29T03:16:03.433Z,98297.62
2018-12-29T03:18:32.523Z,98299.30
2018-12-29T03:21:01.649Z,98300.67
2018-12-29T03:23:30.760Z,98307.22
2018-12-29T03:25:59.893Z,98301.59
2018-12-29T03:28:29.006Z,98301.66
2018-12-29T03:30:58.125Z,98309.56
2018-12-29T03:33:27.237Z,98309.57
2018-12-29T03:35:56.364Z,98301.98
2018-12-29T03:38:25.456Z,98298.32
2018-12-29T03:40:54.588Z,98297.67
2018-12-29T03:43:23.719Z,98291.28
2018-12-29T03:45:52.852Z,98293.93
2018-12-29T03:48:21.951Z,98299.37
2018-12-29T03:50:51.068Z,98302.97
2018-12-29T03:53:20.341Z,98304.65
2018-12-29T03:55:49.453Z,98307.56
2018-12-29T03:58:18.591Z,98316.32
2018-12-29T04:00:47.699Z,98313.19
2018-12-29T04:03:16.814Z,98309.84
2018-12-29T04:05:45.920Z,98310.83
2018-12-29T04:08:15.051Z,98313.58
2018-12-29T04:10:44.158Z,98317.48
2018-12-29T04:13:13.285Z,98322.08
2018-12-29T04:15:42.385Z,98323.73
2018-12-29T04:18:11.513Z,98327.36
2018-12-29T04:20:40.616Z,98332.00
2018-12-29T04:23:09.738Z,98342.27
2018-12-29T04:25:38.842Z,98344.52
2018-12-29T04:28:07.978Z,98343.66
2018-12-29T04:30:37.075Z,98351.43
2018-12-29T04:33:06.193Z,98338.25
2018-12-29T04:35:35.304Z,98339.73
2018-12-29T04:38:04.426Z,98334.25
2018-12-29T04:40:33.539Z,98340.98
2018-12-29T04:43:02.697Z,98337.70
2018-12-29T04:45:31.806Z,98334.36
2018-12-29T04:48:00.929Z,98336.02
2018-12-29T04:50:30.035Z,98333.81
2018-12-29T04:52:59.133Z,98334.45
2018-12-29T04:55:28.255Z,98325.69
2018-12-29T04:57:57.362Z,98322.53
2018-12-29T05:00:26.493Z,98318.79
2018-12-29T05:02:55.608Z,98323.81
2018-12-29T05:05:24.735Z,98321.80
2018-12-29T05:07:53.858Z,98323.46
2018-12-29T05:10:22.996Z,98324.09
2018-12-29T05:12:52.108Z,98322.49
2018-12-29T05:15:21.540Z,98322.63
2018-12-29T05:17:50.664Z,98319.31
2018-12-29T05:20:19.787Z,98321.73
2018-12-29T05:22:48.898Z,98319.29
2018-12-29T05:25:18.025Z,98318.38
2018-12-29T05:27:47.130Z,98313.89
2018-12-29T05:30:16.257Z,98320.06
2018-12-29T05:32:45.356Z,98333.06
2018-12-29T05:35:15.343Z,98328.11
2018-12-29T05:37:44.465Z,98326.95
2018-12-29T05:40:13.597Z,98323.73
2018-12-29T05:42:42.717Z,98328.82
2018-12-29T05:45:11.839Z,98321.23
2018-12-29T05:47:40.943Z,98326.19
2018-12-29T05:50:10.071Z,98327.02
2018-12-29T05:52:39.173Z,98329.31
2018-12-29T05:55:08.292Z,98330.15
2018-12-29T05:57:37.397Z,98331.02
2018-12-29T06:00:06.547Z,98337.28
2018-12-29T06:02:35.649Z,98323.78
2018-12-29T06:05:04.766Z,98329.17
2018-12-29T06:07:33.872Z,98322.31
2018-12-29T06:10:03.002Z,98326.92
2018-12-29T06:12:32.112Z,98334.51
2018-12-29T06:15:01.258Z,98320.65
2018-12-29T06:17:30.369Z,98328.24
2018-12-29T06:19:59.485Z,98317.55
2018-12-29T06:22:28.602Z,98321.03
2018-12-29T06:24:57.725Z,98312.58
2018-12-29T06:27:26.840Z,98319.52
2018-12-29T06:29:55.976Z,98321.86
2018-12-29T06:32:25.079Z,98331.41
2018-12-29T06:34:54.204Z,98337.84
2018-12-29T06:37:23.312Z,98337.19
2018-12-29T06:39:52.453Z,98342.48
2018-12-29T06:42:21.582Z,98346.29
2018-12-29T06:44:50.712Z,98355.05
2018-12-29T06:47:19.821Z,98358.19
2018-12-29T06:49:48.947Z,98367.43
2018-12-29T06:52:18.049Z,98371.93
2018-12-29T06:54:47.181Z,98373.44
2018-12-29T06:57:16.286Z,98384.17
2018-12-29T06:59:45.408Z,98396.70
2018-12-29T07:02:14.499Z,98391.08
2018-12-29T07:04:43.615Z,98401.45
2018-12-29T07:07:12.725Z,98404.63
2018-12-29T07:09:41.859Z,98415.44
2018-12-29T07:12:10.970Z,98417.46
2018-12-29T07:14:40.098Z,98429.28
2018-12-29T07:17:09.209Z,98429.61
2018-12-29T07:19:38.324Z,98427.95
2018-12-29T07:22:07.425Z,98423.17
2018-12-29T07:24:36.538Z,98424.62
2018-12-29T07:27:05.642Z,98429.27
2018-12-29T07:29:38.264Z,98421.32
2018-12-29T07:32:05.920Z,98427.66
2018-12-29T07:34:35.043Z,98425.17
2018-12-29T07:37:04.145Z,98424.34
2018-12-29T07:39:33.277Z,98424.34
2018-12-29T07:42:02.400Z,98423.44
2018-12-29T07:44:31.516Z,98426.76
2018-12-29T07:47:00.622Z,98421.27
2018-12-29T07:49:29.749Z,98426.36
2018-12-29T07:51:58.844Z,98433.84
2018-12-29T07:54:27.951Z,98435.67
2018-12-29T07:56:57.072Z,98437.77
2018-12-29T07:59:26.203Z,98438.13
2018-12-29T08:01:55.299Z,98439.63
2018-12-29T08:04:24.392Z,98440.55
2018-12-29T08:06:53.522Z,98438.61
2018-12-29T08:09:22.626Z,98446.67
2018-12-29T08:11:51.749Z,98444.72
2018-12-29T08:14:20.858Z,98429.33
2018-12-29T08:16:56.681Z,98431.15
2018-12-29T08:19:20.838Z,98427.09
2018-12-29T08:21:49.972Z,98429.55
2018-12-29T08:24:19.074Z,98431.22
2018-12-29T08:26:48.197Z,98426.42
2018-12-29T08:29:17.301Z,98431.70
2018-12-29T08:31:46.425Z,98431.41
2018-12-29T08:34:15.559Z,98425.25
2018-12-29T08:36:44.692Z,98426.72
2018-12-29T08:39:13.791Z,98427.59
2018-12-29T08:41:42.921Z,98415.22
2018-12-29T08:44:12.053Z,98410.91
2018-12-29T08:46:41.176Z,98403.88
2018-12-29T08:49:10.277Z,98407.66
2018-12-29T08:51:39.412Z,98410.61
2018-12-29T08:54:08.507Z,98405.96
2018-12-29T08:56:37.638Z,98408.16
2018-12-29T08:59:06.741Z,98416.95
2018-12-29T09:01:35.867Z,98420.60
2018-12-29T09:04:04.968Z,98417.32
2018-12-29T09:06:34.098Z,98413.69
2018-12-29T09:09:04.494Z,98411.17
2018-12-29T09:11:33.625Z,98408.37
2018-12-29T09:14:02.723Z,98406.20
2018-12-29T09:16:31.872Z,98409.71
2018-12-29T09:19:00.980Z,98412.00
2018-12-29T09:21:30.111Z,98410.04
2018-12-29T09:23:59.206Z,98405.39
2018-12-29T09:26:28.333Z,98409.38
2018-12-29T09:28:57.437Z,98416.32
2018-12-29T09:31:26.569Z,98414.33
2018-12-29T09:33:55.683Z,98409.36
2018-12-29T09:36:24.835Z,98408.37
2018-12-29T09:38:53.931Z,98401.77
2018-12-29T09:41:23.063Z,98410.69
2018-12-29T09:43:52.184Z,98412.99
2018-12-29T09:46:21.305Z,98414.98
2018-12-29T09:48:50.398Z,98419.28
2018-12-29T09:51:19.531Z,98418.95
2018-12-29T09:53:48.639Z,98419.91
2018-12-29T09:56:17.762Z,98423.91
2018-12-29T09:58:46.874Z,98419.09
2018-12-29T10:01:15.998Z,98416.06
2018-12-29T10:03:45.095Z,98416.94
2018-12-29T10:06:14.217Z,98415.41
2018-12-29T10:08:43.345Z,98425.02
2018-12-29T10:11:12.493Z,98423.05
2018-12-29T10:13:41.595Z,98424.52
2018-12-29T10:16:10.732Z,98423.05
2018-12-29T10:18:39.839Z,98421.72
2018-12-29T10:21:08.969Z,98430.17
2018-12-29T10:23:38.079Z,98418.60
2018-12-29T10:26:07.206Z,98420.25
2018-12-29T10:28:36.313Z,98418.25
2018-12-29T10:31:05.443Z,98426.55
2018-12-29T10:33:34.553Z,98423.21
2018-12-29T10:36:04.458Z,98423.52
2018-12-29T10:38:37.345Z,98421.52
2018-12-29T10:41:07.652Z,98418.89
2018-12-29T10:43:40.213Z,98419.92
2018-12-29T10:46:10.884Z,98408.34
2018-12-29T10:48:39.987Z,98400.75
2018-12-29T10:51:09.129Z,98393.87
2018-12-29T10:53:38.243Z,98380.45
2018-12-29T10:56:07.378Z,98376.91
2018-12-29T10:58:36.483Z,98369.90
2018-12-29T11:01:05.606Z,98358.58
2018-12-29T11:03:34.727Z,98345.83
2018-12-29T11:06:03.867Z,98336.84
2018-12-29T11:08:33.079Z,98325.75
2018-12-29T11:11:02.165Z,98328.19
2018-12-29T11:13:31.296Z,98327.88
2018-12-29T11:16:00.421Z,98319.69
2018-12-29T11:18:29.553Z,98321.73
2018-12-29T11:20:58.659Z,98305.56
2018-12-29T11:23:27.778Z,98306.03
2018-12-29T11:25:56.877Z,98287.13
2018-12-29T11:28:25.999Z,98283.63
2018-12-29T11:30:55.105Z,98275.13
2018-12-29T11:33:24.232Z,98262.48
2018-12-29T11:35:53.352Z,98258.98
2018-12-29T11:38:22.479Z,98256.00
2018-12-29T11:40:51.586Z,98258.92
2018-12-29T11:43:20.744Z,98254.87
2018-12-29T11:45:49.841Z,98253.88
2018-12-29T11:48:18.981Z,98259.51
2018-12-29T11:50:48.091Z,98256.13
2018-12-29T11:53:17.211Z,98254.06
2018-12-29T11:55:46.595Z,98260.38
2018-12-29T11:58:15.720Z,98260.70
2018-12-29T12:00:44.829Z,98262.95
2018-12-29T12:03:14.037Z,98261.77
2018-12-29T12:05:43.220Z,98265.50
2018-12-29T12:08:12.362Z,98259.89
2018-12-29T12:10:41.463Z,98249.33
2018-12-29T12:13:10.601Z,98244.86
2018-12-29T12:15:39.701Z,98240.93
2018-12-29T12:18:08.837Z,98241.05
2018-12-29T12:20:38.674Z,98242.67
2018-12-29T12:23:07.810Z,98240.49
2018-12-29T12:25:36.912Z,98245.52
2018-12-29T12:28:06.362Z,98241.88
2018-12-29T12:30:35.482Z,98239.06
2018-12-29T12:33:04.629Z,98237.44
2018-12-29T12:35:33.730Z,98230.67
2018-12-29T12:38:03.140Z,98220.05
2018-12-29T12:40:32.244Z,98217.86
2018-12-29T12:43:01.411Z,98197.39
2018-12-29T12:45:30.512Z,98188.15
2018-12-29T12:48:05.079Z,98194.38
2018-12-29T12:50:33.615Z,98221.53
2018-12-29T12:53:03.019Z,98257.16
2018-12-29T12:55:32.509Z,98272.61
2018-12-29T12:58:01.899Z,98263.00
2018-12-29T13:00:31.327Z,98268.58
2018-12-29T13:03:00.729Z,98279.17
2018-12-29T13:05:30.471Z,98283.38
2018-12-29T13:07:59.574Z,98275.39
2018-12-29T13:10:28.698Z,98267.80
2018-12-29T13:12:57.833Z,98261.84
2018-12-29T13:15:26.968Z,98254.06
2018-12-29T13:17:56.072Z,98253.61
2018-12-29T13:20:25.718Z,98255.58
2018-12-29T13:22:54.820Z,98256.25
2018-12-29T13:25:23.941Z,98246.33
2018-12-29T13:27:53.061Z,98245.35
2018-12-29T13:30:22.183Z,98247.31
2018-12-29T13:32:51.471Z,98244.66
2018-12-29T13:35:20.596Z,98251.09
2018-12-29T13:37:49.700Z,98248.59
2018-12-29T13:40:18.834Z,98244.98
2018-12-29T13:42:47.983Z,98248.59
2018-12-29T13:45:17.100Z,98235.70
2018-12-29T13:47:46.202Z,98235.70
2018-12-29T13:50:15.331Z,98239.16
2018-12-29T13:52:44.438Z,98228.08
2018-12-29T13:55:13.565Z,98207.23
2018-12-29T13:57:42.666Z,98194.30
2018-12-29T14:00:11.805Z,98189.72
2018-12-29T14:02:40.917Z,98182.92
2018-12-29T14:05:10.041Z,98177.80
2018-12-29T14:07:39.425Z,98176.08
2018-12-29T14:10:08.535Z,98172.80
2018-12-29T14:12:37.669Z,98175.16
2018-12-29T14:15:07.259Z,98164.89
2018-12-29T14:17:36.391Z,98170.88
2018-12-29T14:20:06.053Z,98167.83
2018-12-29T14:22:35.174Z,98168.85
2018-12-29T14:25:04.269Z,98167.41
2018-12-29T14:27:33.400Z,98165.19
2018-12-29T14:30:02.499Z,98157.94
2018-12-29T14:32:31.636Z,98162.00
2018-12-29T14:35:00.746Z,98152.64
2018-12-29T14:37:29.889Z,98143.33
2018-12-29T14:39:58.987Z,98124.82
2018-12-29T14:42:28.140Z,98129.87
2018-12-29T14:44:57.247Z,98132.41
2018-12-29T14:47:26.463Z,98131.74
2018-12-29T14:49:55.567Z,98147.11
2018-12-29T14:52:24.687Z,98160.53
2018-12-29T14:54:54.073Z,98179.23
2018-12-29T14:57:23.205Z,98190.64
2018-12-29T14:59:52.305Z,98155.59
2018-12-29T15:02:21.429Z,98125.37
2018-12-29T15:04:50.537Z,98150.25
2018-12-29T15:07:19.667Z,98159.52
2018-12-29T15:09:48.781Z,98149.97
2018-12-29T15:12:17.917Z,98151.64
2018-12-29T15:14:47.016Z,98169.68
2018-12-29T15:17:16.153Z,98170.67
2018-12-29T15:19:45.254Z,98182.39
2018-12-29T15:22:14.356Z,98191.47
2018-12-29T15:24:43.759Z,98183.26
2018-12-29T15:27:12.865Z,98180.75
2018-12-29T15:29:42.064Z,98174.18
2018-12-29T15:32:11.449Z,98166.22
2018-12-29T15:34:40.575Z,98175.84
2018-12-29T15:37:09.688Z,98166.55
2018-12-29T15:39:38.813Z,98168.87
2018-12-29T15:42:07.937Z,98149.37
2018-12-29T15:44:37.135Z,98137.27
2018-12-29T15:47:06.604Z,98141.42
2018-12-29T15:49:35.726Z,98136.48
2018-12-29T15:52:25.706Z,98138.79
2018-12-29T15:55:27.624Z,98129.17
2018-12-29T16:19:37.847Z,98072.55
2018-12-29T16:28:33.235Z,98090.47
2018-12-29T16:41:28.635Z,98066.63
2018-12-29T16:50:10.295Z,98048.06
2018-12-29T17:00:20.124Z,98061.23
2018-12-29T17:10:24.535Z,98026.95
2018-12-29T17:20:00.736Z,98069.64
2018-12-29T18:08:16.756Z,98057.49
2018-12-29T18:11:18.586Z,98056.50
2018-12-29T18:21:33.711Z,98026.76
2018-12-29T19:04:05.083Z,98007.61
2018-12-29T19:17:21.762Z,97995.56
2018-12-29T19:46:07.793Z,97954.55
2018-12-29T20:59:30.709Z,97918.63
2018-12-29T21:05:42.767Z,97900.51
2018-12-29T21:25:41.986Z,97900.92
2018-12-29T22:31:43.523Z,97909.38
2018-12-29T22:46:52.493Z,97902.94
2018-12-29T23:02:00.731Z,97912.64
2018-12-29T23:17:09.148Z,97887.75
2018-12-29T23:32:14.851Z,97886.38
2018-12-29T23:40:51.660Z,97882.73
2018-12-29T23:52:57.774Z,97865.14
